createdAt,value
2018-07-27T00:00:28.342Z,6.30
2018-07-27T00:03:00.738Z,9.27
2018-07-27T00:05:33.130Z,6.63
2018-07-27T00:08:05.565Z,6.00
2018-07-27T00:10:38.002Z,7.73
2018-07-27T00:13:10.778Z,7.70
2018-07-27T00:15:43.149Z,6.07
2018-07-27T00:18:15.551Z,8.47
2018-07-27T00:20:47.969Z,12.73
2018-07-27T00:23:20.399Z,6.73
2018-07-27T00:25:52.839Z,7.50
2018-07-27T00:28:25.422Z,7.80
2018-07-27T00:30:57.870Z,6.67
2018-07-27T00:33:30.264Z,10.50
2018-07-27T00:36:02.736Z,7.23
2018-07-27T00:38:35.088Z,7.63
2018-07-27T00:41:07.615Z,6.83
2018-07-27T00:43:40.061Z,6.97
2018-07-27T00:46:12.454Z,6.57
2018-07-27T00:48:44.867Z,6.57
2018-07-27T00:51:17.288Z,7.83
2018-07-27T00:53:50.219Z,8.53
2018-07-27T00:56:22.648Z,8.27
2018-07-27T00:58:55.135Z,7.43
2018-07-27T01:01:27.538Z,7.33
2018-07-27T01:03:59.969Z,7.63
2018-07-27T01:06:32.375Z,7.93
2018-07-27T01:09:07.016Z,9.53
2018-07-27T01:11:39.720Z,8.53
2018-07-27T01:14:12.115Z,9.43
2018-07-27T01:16:44.510Z,10.13
2018-07-27T01:19:16.925Z,8.40
2018-07-27T01:21:49.416Z,10.07
2018-07-27T01:24:21.771Z,10.80
2018-07-27T01:26:54.195Z,8.43
2018-07-27T01:29:26.602Z,10.27
2018-07-27T01:31:58.975Z,11.30
2018-07-27T01:34:31.383Z,9.27
2018-07-27T01:37:03.891Z,10.10
2018-07-27T01:39:36.271Z,9.00
2018-07-27T01:42:08.843Z,8.67
2018-07-27T01:44:41.226Z,8.30
2018-07-27T01:47:13.838Z,12.93
2018-07-27T01:49:46.272Z,10.43
2018-07-27T01:52:19.189Z,8.87
2018-07-27T01:54:51.646Z,8.07
2018-07-27T01:57:24.047Z,8.07
2018-07-27T01:59:56.443Z,11.23
2018-07-27T02:02:30.279Z,7.93
2018-07-27T02:05:02.655Z,11.13
2018-07-27T02:07:35.128Z,10.20
2018-07-27T02:10:07.596Z,9.53
2018-07-27T02:12:39.995Z,9.17
2018-07-27T02:15:12.417Z,11.03
2018-07-27T02:17:44.794Z,9.57
2018-07-27T02:20:17.222Z,11.07
2018-07-27T02:22:49.726Z,9.90
2018-07-27T02:25:22.160Z,10.90
2018-07-27T02:27:54.579Z,10.57
2018-07-27T02:30:27.095Z,10.53
2018-07-27T02:32:59.506Z,13.40
2018-07-27T02:35:31.895Z,10.17
2018-07-27T02:38:04.753Z,10.93
2018-07-27T02:40:37.173Z,13.43
2018-07-27T02:43:10.023Z,9.50
2018-07-27T02:45:42.472Z,12.40
2018-07-27T02:48:15.040Z,12.60
2018-07-27T02:50:47.454Z,10.37
2018-07-27T02:53:19.875Z,11.40
2018-07-27T02:55:52.257Z,9.00
2018-07-27T02:58:24.664Z,12.70
2018-07-27T03:00:57.882Z,13.33
2018-07-27T03:03:30.548Z,11.83
2018-07-27T03:06:02.983Z,13.27
2018-07-27T03:08:35.638Z,9.47
2018-07-27T03:11:08.021Z,10.27
2018-07-27T03:13:40.442Z,11.70
2018-07-27T03:16:12.860Z,11.23
2018-07-27T03:18:45.258Z,11.33
2018-07-27T03:21:17.715Z,13.20
2018-07-27T03:23:50.114Z,14.20
2018-07-27T03:26:22.588Z,14.53
2018-07-27T03:28:55.089Z,12.30
2018-07-27T03:31:27.484Z,10.87
2018-07-27T03:33:59.889Z,13.17
2018-07-27T03:36:32.280Z,12.33
2018-07-27T03:39:07.444Z,10.67
2018-07-27T03:41:39.824Z,11.03
2018-07-27T03:44:12.405Z,21.03
2018-07-27T03:46:44.783Z,12.30
2018-07-27T03:49:17.201Z,10.60
2018-07-27T03:51:49.568Z,12.20
2018-07-27T03:54:22.207Z,11.30
2018-07-27T03:56:54.629Z,15.70
2018-07-27T03:59:27.054Z,12.80
2018-07-27T04:01:59.478Z,14.87
2018-07-27T04:04:31.986Z,15.87
2018-07-27T04:07:04.685Z,13.80
2018-07-27T04:09:37.095Z,12.13
2018-07-27T04:12:09.483Z,16.23
2018-07-27T04:14:42.019Z,15.03
2018-07-27T04:17:14.378Z,15.33
2018-07-27T04:19:46.817Z,12.03
2018-07-27T04:22:19.981Z,11.57
2018-07-27T04:24:58.333Z,14.17
2018-07-27T04:27:30.703Z,12.97
2018-07-27T04:30:03.662Z,11.40
2018-07-27T04:32:36.044Z,11.67
2018-07-27T04:35:08.469Z,13.80
2018-07-27T04:37:40.886Z,11.10
2018-07-27T04:40:13.477Z,14.33
2018-07-27T04:42:45.850Z,14.53
2018-07-27T04:45:18.411Z,12.93
2018-07-27T04:47:50.834Z,12.40
2018-07-27T04:50:23.592Z,12.47
2018-07-27T04:52:55.974Z,12.80
2018-07-27T04:55:28.602Z,14.90
2018-07-27T04:58:01.087Z,13.23
2018-07-27T05:00:33.525Z,16.43
2018-07-27T05:03:05.955Z,13.77
2018-07-27T05:05:39.641Z,16.17
2018-07-27T05:08:12.030Z,12.77
2018-07-27T05:10:46.613Z,18.20
2018-07-27T05:13:19.696Z,15.00
2018-07-27T05:15:52.250Z,12.07
2018-07-27T05:18:25.042Z,15.70
2018-07-27T05:20:57.772Z,13.53
2018-07-27T05:23:30.235Z,15.93
2018-07-27T05:26:02.715Z,12.93
2018-07-27T05:28:35.181Z,13.07
2018-07-27T05:31:07.578Z,16.33
2018-07-27T05:33:40.218Z,14.37
2018-07-27T05:36:12.799Z,13.97
2018-07-27T05:38:45.172Z,12.27
2018-07-27T05:41:18.145Z,17.50
2018-07-27T05:43:50.654Z,14.70
2018-07-27T05:46:23.361Z,12.27
2018-07-27T05:48:55.966Z,14.33
2018-07-27T05:51:28.534Z,13.47
2018-07-27T05:54:01.170Z,14.63
2018-07-27T05:56:33.767Z,13.60
2018-07-27T05:59:06.161Z,13.57
2018-07-27T06:01:38.618Z,14.53
2018-07-27T06:04:10.994Z,14.00
2018-07-27T06:06:43.541Z,17.37
2018-07-27T06:09:16.077Z,16.47
2018-07-27T06:11:48.487Z,16.53
2018-07-27T06:14:20.980Z,12.90
2018-07-27T06:16:53.428Z,11.70
2018-07-27T06:19:25.974Z,11.33
2018-07-27T06:21:58.472Z,11.17
2018-07-27T06:24:43.954Z,11.40
2018-07-27T06:27:17.851Z,15.17
2018-07-27T06:29:50.369Z,16.40
2018-07-27T06:32:22.843Z,15.90
2018-07-27T06:34:55.280Z,11.17
2018-07-27T06:37:27.886Z,12.77
2018-07-27T06:40:00.513Z,18.60
2018-07-27T06:42:33.108Z,13.00
2018-07-27T06:45:06.001Z,11.30
2018-07-27T06:47:39.872Z,12.57
2018-07-27T06:50:12.618Z,15.67
2018-07-27T06:52:45.491Z,11.97
2018-07-27T06:55:18.221Z,12.17
2018-07-27T06:57:51.609Z,11.60
2018-07-27T07:00:24.331Z,12.70
2018-07-27T07:02:56.996Z,11.87
2018-07-27T07:05:29.738Z,13.70
2018-07-27T07:08:03.589Z,11.20
2018-07-27T07:10:36.251Z,12.10
2018-07-27T07:13:08.941Z,14.13
2018-07-27T07:15:41.822Z,11.93
2018-07-27T07:18:14.435Z,12.23
2018-07-27T07:20:47.200Z,12.67
2018-07-27T07:23:19.984Z,13.33
2018-07-27T07:25:52.670Z,12.40
2018-07-27T07:28:25.276Z,12.43
2018-07-27T07:30:58.004Z,10.17
2018-07-27T07:33:31.099Z,10.93
2018-07-27T07:36:03.925Z,10.37
2018-07-27T07:38:36.728Z,11.00
2018-07-27T07:41:09.456Z,12.67
2018-07-27T07:43:42.107Z,9.10
2018-07-27T07:46:14.925Z,13.87
2018-07-27T07:48:48.251Z,10.90
2018-07-27T07:51:22.251Z,8.63
2018-07-27T07:53:55.243Z,10.93
2018-07-27T07:56:28.070Z,12.07
2018-07-27T07:59:03.251Z,9.10
2018-07-27T08:01:36.227Z,8.23
2018-07-27T08:04:09.336Z,9.90
2018-07-27T08:06:42.298Z,10.30
2018-07-27T08:09:15.506Z,9.20
2018-07-27T08:11:49.621Z,9.27
2018-07-27T08:14:22.759Z,8.47
2018-07-27T08:16:55.258Z,8.50
2018-07-27T08:19:27.724Z,8.10
2018-07-27T08:22:00.307Z,8.50
2018-07-27T08:24:32.839Z,7.40
2018-07-27T08:27:06.124Z,9.73
2018-07-27T08:29:39.829Z,7.90
2018-07-27T08:32:13.788Z,9.93
2018-07-27T08:34:46.408Z,7.50
2018-07-27T08:37:19.141Z,8.70
2018-07-27T08:39:51.790Z,11.30
2018-07-27T08:42:24.379Z,7.37
2018-07-27T08:44:57.015Z,9.90
2018-07-27T08:47:30.004Z,9.30
2018-07-27T08:50:02.638Z,10.97
2018-07-27T08:52:35.108Z,9.70
2018-07-27T08:55:07.978Z,9.57
2018-07-27T08:57:40.577Z,7.63
2018-07-27T09:00:13.135Z,7.90
2018-07-27T09:02:46.077Z,15.33
2018-07-27T09:05:18.665Z,8.43
2018-07-27T09:07:51.338Z,8.20
2018-07-27T09:10:24.230Z,8.90
2018-07-27T09:12:56.820Z,8.63
2018-07-27T09:15:34.388Z,6.40
2018-07-27T09:18:07.732Z,10.27
2018-07-27T09:20:40.218Z,7.57
2018-07-27T09:23:12.668Z,7.90
2018-07-27T09:25:47.203Z,7.33
2018-07-27T09:28:19.647Z,9.57
2018-07-27T09:30:52.397Z,6.53
2018-07-27T09:33:24.906Z,9.60
2018-07-27T09:35:57.398Z,6.70
2018-07-27T09:38:29.963Z,7.03
2018-07-27T09:41:02.545Z,6.50
2018-07-27T09:43:35.112Z,8.43
2018-07-27T09:46:07.820Z,7.07
2018-07-27T09:48:40.378Z,6.00
2018-07-27T09:51:14.219Z,7.27
2018-07-27T09:53:47.155Z,8.47
2018-07-27T09:56:20.022Z,6.80
2018-07-27T09:58:52.769Z,8.13
2018-07-27T10:01:27.304Z,7.50
2018-07-27T10:03:59.980Z,8.13
2018-07-27T10:06:33.380Z,6.07
2018-07-27T10:09:06.887Z,8.43
2018-07-27T10:11:40.854Z,5.83
2018-07-27T10:14:13.603Z,5.87
2018-07-27T10:16:46.314Z,5.60
2018-07-27T10:19:19.081Z,5.70
2018-07-27T10:21:51.663Z,5.50
2018-07-27T10:24:24.254Z,8.70
2018-07-27T10:26:58.153Z,6.13
2018-07-27T10:29:30.750Z,6.03
2018-07-27T10:32:04.645Z,6.80
2018-07-27T10:34:37.367Z,6.77
2018-07-27T10:37:10.190Z,5.40
2018-07-27T10:39:42.977Z,6.17
2018-07-27T10:42:15.809Z,7.97
2018-07-27T10:44:49.013Z,5.57
2018-07-27T10:47:22.640Z,6.03
2018-07-27T10:49:55.483Z,5.60
2018-07-27T10:52:28.572Z,7.53
2018-07-27T10:55:01.282Z,7.27
2018-07-27T10:57:34.493Z,6.40
2018-07-27T11:00:11.569Z,6.53
2018-07-27T11:02:44.511Z,5.87
2018-07-27T11:05:17.062Z,6.77
2018-07-27T11:07:49.710Z,6.57
2018-07-27T11:10:22.525Z,8.53
2018-07-27T11:12:55.709Z,6.50
2018-07-27T11:15:28.841Z,6.43
2018-07-27T11:18:01.740Z,5.93
2018-07-27T11:20:34.662Z,7.23
2018-07-27T11:23:07.538Z,5.87
2018-07-27T11:25:40.079Z,5.27
2018-07-27T11:28:12.729Z,5.77
2018-07-27T11:30:45.666Z,5.60
2018-07-27T11:33:19.372Z,6.97
2018-07-27T11:35:52.046Z,5.27
2018-07-27T11:38:26.628Z,5.60
2018-07-27T11:40:59.289Z,4.90
2018-07-27T11:43:32.317Z,5.70
2018-07-27T11:46:04.847Z,5.27
2018-07-27T11:48:37.992Z,8.57
2018-07-27T11:51:10.755Z,5.20
2018-07-27T11:53:43.747Z,5.90
2018-07-27T11:56:16.734Z,5.47
2018-07-27T11:58:49.859Z,9.50
2018-07-27T12:01:22.656Z,5.53
2018-07-27T12:03:55.443Z,4.40
2018-07-27T12:06:28.104Z,5.00
2018-07-27T12:09:01.018Z,5.20
2018-07-27T12:11:33.815Z,5.17
2018-07-27T12:14:06.991Z,5.27
2018-07-27T12:16:39.666Z,4.77
2018-07-27T12:19:12.749Z,5.53
2018-07-27T12:21:45.747Z,5.73
2018-07-27T12:24:18.414Z,4.50
2018-07-27T12:26:51.141Z,5.13
2018-07-27T12:29:23.997Z,3.80
2018-07-27T12:31:56.857Z,5.20
2018-07-27T12:34:29.628Z,4.37
2018-07-27T12:37:02.251Z,6.33
2018-07-27T12:39:34.941Z,4.87
2018-07-27T12:42:07.565Z,4.57
2018-07-27T12:44:40.287Z,4.73
2018-07-27T12:47:13.407Z,5.50
2018-07-27T12:49:46.259Z,8.50
2018-07-27T12:52:19.243Z,6.23
2018-07-27T12:54:52.157Z,9.00
2018-07-27T12:57:25.181Z,5.70
2018-07-27T12:59:58.210Z,6.80
2018-07-27T13:02:31.041Z,8.67
2018-07-27T13:05:04.126Z,7.93
2018-07-27T13:07:36.658Z,6.60
2018-07-27T13:10:09.220Z,6.30
2018-07-27T13:12:41.788Z,6.80
2018-07-27T13:15:14.435Z,5.07
2018-07-27T13:17:46.857Z,4.90
2018-07-27T13:20:19.463Z,5.33
2018-07-27T13:22:51.954Z,7.70
2018-07-27T13:25:24.667Z,8.27
2018-07-27T13:27:57.436Z,4.63
2018-07-27T13:30:30.284Z,7.07
2018-07-27T13:33:03.108Z,5.93
2018-07-27T13:35:36.199Z,6.07
2018-07-27T13:38:08.942Z,5.67
2018-07-27T13:40:41.674Z,5.87
2018-07-27T13:43:14.585Z,4.20
2018-07-27T13:45:47.320Z,4.10
2018-07-27T13:48:20.332Z,4.77
2018-07-27T13:50:52.983Z,4.53
2018-07-27T13:53:25.767Z,4.67
2018-07-27T13:55:59.758Z,4.70
2018-07-27T13:58:32.547Z,5.95
2018-07-27T14:01:05.396Z,6.97
2018-07-27T14:03:38.268Z,4.10
2018-07-27T14:06:11.129Z,5.03
2018-07-27T14:08:44.087Z,4.90
2018-07-27T14:11:17.075Z,4.23
2018-07-27T14:13:49.936Z,4.90
2018-07-27T14:16:22.557Z,4.43
2018-07-27T14:18:55.942Z,4.93
2018-07-27T14:21:29.114Z,4.57
2018-07-27T14:24:02.065Z,5.17
2018-07-27T14:26:34.789Z,4.90
2018-07-27T14:29:07.709Z,4.97
2018-07-27T14:31:40.404Z,5.07
2018-07-27T14:34:13.252Z,4.33
2018-07-27T14:36:46.070Z,4.87
2018-07-27T14:39:18.648Z,4.37
2018-07-27T14:41:51.354Z,5.53
2018-07-27T14:44:24.621Z,6.23
2018-07-27T14:46:57.444Z,5.37
2018-07-27T14:49:30.394Z,5.13
2018-07-27T14:52:03.151Z,4.47
2018-07-27T14:54:35.949Z,4.50
2018-07-27T14:57:08.829Z,7.90
2018-07-27T14:59:41.419Z,5.87
2018-07-27T15:02:14.393Z,4.73
2018-07-27T15:04:47.265Z,5.10
2018-07-27T15:07:19.978Z,5.20
2018-07-27T15:09:52.727Z,5.57
2018-07-27T15:12:25.516Z,8.77
2018-07-27T15:14:58.223Z,5.13
2018-07-27T15:17:34.590Z,4.60
2018-07-27T15:20:07.455Z,5.93
2018-07-27T15:22:40.208Z,4.30
2018-07-27T15:25:12.921Z,5.20
2018-07-27T15:27:46.662Z,4.23
2018-07-27T15:30:19.149Z,4.00
2018-07-27T15:32:52.077Z,4.37
2018-07-27T15:35:24.666Z,7.30
2018-07-27T15:37:58.999Z,4.30
2018-07-27T15:40:32.064Z,5.80
2018-07-27T15:43:04.833Z,6.00
2018-07-27T15:45:37.395Z,4.40
2018-07-27T15:48:10.425Z,4.67
2018-07-27T15:50:43.263Z,5.20
2018-07-27T15:53:16.136Z,5.27
2018-07-27T15:55:48.775Z,5.03
2018-07-27T15:58:21.493Z,7.13
2018-07-27T16:00:54.101Z,5.07
2018-07-27T16:03:27.035Z,6.63
2018-07-27T16:05:59.932Z,6.60
2018-07-27T16:08:32.747Z,5.13
2018-07-27T16:11:05.607Z,9.23
2018-07-27T16:13:38.316Z,6.23
2018-07-27T16:16:12.081Z,5.47
2018-07-27T16:18:51.017Z,4.90
2018-07-27T16:21:23.789Z,5.47
2018-07-27T16:23:56.321Z,6.07
2018-07-27T16:26:29.889Z,5.67
2018-07-27T16:29:02.532Z,7.77
2018-07-27T16:31:35.368Z,11.03
2018-07-27T16:34:08.159Z,7.73
2018-07-27T16:36:41.837Z,5.20
2018-07-27T16:39:15.284Z,5.13
2018-07-27T16:41:48.170Z,5.97
2018-07-27T16:44:21.260Z,11.57
2018-07-27T16:46:53.678Z,7.17
2018-07-27T16:49:26.751Z,5.23
2018-07-27T16:51:59.625Z,5.57
2018-07-27T16:54:32.395Z,6.60
2018-07-27T16:57:05.699Z,6.10
2018-07-27T16:59:39.063Z,5.63
2018-07-27T17:02:12.122Z,6.73
2018-07-27T17:04:44.667Z,5.37
2018-07-27T17:07:17.259Z,5.77
2018-07-27T17:09:49.822Z,5.03
2018-07-27T17:12:22.958Z,4.47
2018-07-27T17:14:56.300Z,5.23
2018-07-27T17:17:29.073Z,4.50
2018-07-27T17:20:02.409Z,5.37
2018-07-27T17:22:35.064Z,15.30
2018-07-27T17:25:09.466Z,4.93
2018-07-27T17:27:42.072Z,7.77
2018-07-27T17:30:14.695Z,8.03
2018-07-27T17:32:47.651Z,4.73
2018-07-27T17:35:20.379Z,6.57
2018-07-27T17:37:53.013Z,4.83
2018-07-27T17:40:25.884Z,9.47
2018-07-27T17:42:58.584Z,5.10
2018-07-27T17:45:31.348Z,7.17
2018-07-27T17:48:05.037Z,6.87
2018-07-27T17:50:37.861Z,44.13
2018-07-27T17:53:10.625Z,5.47
2018-07-27T17:55:43.271Z,6.33
2018-07-27T17:58:15.965Z,6.13
2018-07-27T18:00:48.777Z,5.87
2018-07-27T18:03:21.915Z,6.20
2018-07-27T18:05:54.975Z,8.10
2018-07-27T18:08:27.698Z,6.17
2018-07-27T18:11:00.415Z,6.43
2018-07-27T18:13:33.499Z,6.03
2018-07-27T18:16:06.055Z,6.57
2018-07-27T18:18:38.939Z,7.77
2018-07-27T18:21:11.717Z,8.37
2018-07-27T18:23:44.544Z,6.53
2018-07-27T18:26:17.434Z,6.27
2018-07-27T18:28:50.075Z,8.17
2018-07-27T18:31:22.828Z,6.53
2018-07-27T18:33:55.778Z,6.87
2018-07-27T18:36:28.596Z,6.13
2018-07-27T18:39:01.497Z,6.67
2018-07-27T18:41:34.195Z,6.73
2018-07-27T18:44:07.332Z,7.97
2018-07-27T18:46:40.224Z,5.77
2018-07-27T18:49:12.918Z,6.77
2018-07-27T18:51:45.785Z,11.53
2018-07-27T18:54:18.461Z,7.40
2018-07-27T18:56:51.193Z,8.23
2018-07-27T18:59:24.270Z,7.83
2018-07-27T19:01:57.188Z,8.87
2018-07-27T19:04:29.867Z,7.67
2018-07-27T19:07:02.614Z,13.07
2018-07-27T19:09:35.934Z,9.90
2018-07-27T19:12:08.724Z,9.27
2018-07-27T19:14:41.387Z,8.67
2018-07-27T19:17:14.034Z,13.63
2018-07-27T19:19:46.826Z,9.13
2018-07-27T19:22:19.454Z,11.00
2018-07-27T19:24:52.186Z,9.43
2018-07-27T19:27:25.247Z,9.93
2018-07-27T19:29:58.662Z,10.67
2018-07-27T19:32:31.810Z,10.73
2018-07-27T19:35:04.563Z,9.73
2018-07-27T19:37:37.346Z,10.30
2018-07-27T19:40:10.022Z,9.07
2018-07-27T19:42:42.937Z,9.10
2018-07-27T19:45:15.779Z,9.13
2018-07-27T19:47:48.495Z,12.63
2018-07-27T19:50:21.265Z,10.47
2018-07-27T19:52:54.068Z,12.87
2018-07-27T19:55:26.617Z,14.97
2018-07-27T19:57:59.599Z,8.87
2018-07-27T20:00:32.401Z,8.60
2018-07-27T20:03:05.627Z,10.63
2018-07-27T20:05:38.831Z,12.47
2018-07-27T20:08:11.583Z,9.70
2018-07-27T20:10:44.294Z,10.63
2018-07-27T20:13:17.074Z,12.70
2018-07-27T20:15:49.946Z,9.33
2018-07-27T20:18:22.855Z,8.57
2018-07-27T20:20:55.745Z,10.60
2018-07-27T20:23:28.694Z,11.10
2018-07-27T20:26:01.360Z,9.37
2018-07-27T20:28:34.107Z,11.37
2018-07-27T20:31:06.699Z,11.90
2018-07-27T20:33:39.326Z,9.80
2018-07-27T20:36:11.910Z,9.70
2018-07-27T20:38:44.621Z,8.83
2018-07-27T20:41:17.157Z,9.70
2018-07-27T20:43:50.209Z,9.87
2018-07-27T20:46:23.240Z,11.50
2018-07-27T20:48:55.852Z,12.40
2018-07-27T20:51:28.625Z,10.47
2018-07-27T20:54:01.507Z,9.97
2018-07-27T20:56:34.231Z,9.57
2018-07-27T20:59:06.976Z,9.93
2018-07-27T21:01:39.611Z,10.77
2018-07-27T21:04:13.026Z,9.63
2018-07-27T21:06:45.839Z,9.60
2018-07-27T21:09:18.718Z,12.47
2018-07-27T21:11:51.210Z,10.43
2018-07-27T21:14:23.936Z,12.17
2018-07-27T21:16:56.435Z,10.37
2018-07-27T21:19:28.851Z,10.67
2018-07-27T21:22:01.326Z,11.77
2018-07-27T21:24:34.479Z,13.60
2018-07-27T21:27:06.892Z,9.80
2018-07-27T21:29:39.450Z,11.03
2018-07-27T21:32:11.821Z,12.17
2018-07-27T21:34:44.253Z,10.20
2018-07-27T21:37:16.674Z,9.43
2018-07-27T21:39:49.126Z,9.87
2018-07-27T21:42:27.500Z,11.20
2018-07-27T21:45:00.301Z,10.20
2018-07-27T21:47:32.722Z,13.53
2018-07-27T21:50:05.224Z,11.30
2018-07-27T21:52:37.653Z,11.30
2018-07-27T21:55:10.101Z,12.63
2018-07-27T21:57:42.520Z,10.77
2018-07-27T22:00:15.031Z,9.50
2018-07-27T22:02:47.515Z,15.13
2018-07-27T22:05:20.302Z,9.83
2018-07-27T22:07:54.439Z,9.80
2018-07-27T22:10:26.877Z,10.13
2018-07-27T22:12:59.559Z,10.07
2018-07-27T22:15:32.037Z,9.33
2018-07-27T22:18:05.421Z,10.83
2018-07-27T22:20:37.948Z,8.37
2018-07-27T22:23:10.590Z,11.00
2018-07-27T22:25:44.197Z,10.47
2018-07-27T22:28:16.923Z,8.90
2018-07-27T22:30:49.499Z,8.37
2018-07-27T22:33:21.852Z,8.80
2018-07-27T22:35:54.244Z,8.90
2018-07-27T22:38:26.658Z,10.63
2018-07-27T22:40:59.232Z,11.77
2018-07-27T22:43:31.658Z,11.17
2018-07-27T22:46:04.538Z,10.30
2018-07-27T22:48:36.901Z,12.13
2018-07-27T22:51:09.349Z,13.17
2018-07-27T22:53:42.047Z,10.10
2018-07-27T22:56:14.543Z,13.97
2018-07-27T22:58:46.940Z,20.47
2018-07-27T23:01:19.434Z,9.93
2018-07-27T23:03:52.135Z,10.07
2018-07-27T23:06:24.687Z,12.60
2018-07-27T23:08:57.101Z,15.03
2018-07-27T23:11:29.542Z,10.67
2018-07-27T23:14:01.960Z,11.00
2018-07-27T23:16:34.434Z,9.23
2018-07-27T23:19:06.817Z,9.40
2018-07-27T23:21:39.287Z,9.87
2018-07-27T23:24:11.779Z,9.37
2018-07-27T23:26:44.582Z,9.97
2018-07-27T23:29:17.383Z,10.50
2018-07-27T23:31:49.891Z,10.50
2018-07-27T23:34:22.294Z,14.97
2018-07-27T23:36:54.802Z,20.30
2018-07-27T23:39:27.239Z,11.17
2018-07-27T23:41:59.686Z,10.00
2018-07-27T23:44:32.092Z,9.40
2018-07-27T23:47:04.580Z,9.83
2018-07-27T23:49:36.970Z,9.43
2018-07-27T23:52:09.563Z,10.53
2018-07-27T23:54:41.921Z,11.10
2018-07-27T23:57:14.454Z,11.00
2018-07-27T23:59:46.835Z,9.20
